createdAt,value
2019-04-16T00:00:32.579Z,29.30
2019-04-16T00:03:01.682Z,25.60
2019-04-16T00:05:38.637Z,29.63
2019-04-16T00:08:26.562Z,23.07
2019-04-16T00:10:49.306Z,29.50
2019-04-16T00:13:21.931Z,25.50
2019-04-16T00:15:51.098Z,26.33
2019-04-16T00:18:20.879Z,27.43
2019-04-16T00:21:10.569Z,27.00
2019-04-16T00:24:10.856Z,23.73
2019-04-16T00:26:40.365Z,23.13
2019-04-16T00:29:09.938Z,30.57
2019-04-16T00:31:39.739Z,34.60
2019-04-16T00:34:13.362Z,28.53
2019-04-16T00:36:40.097Z,25.60
2019-04-16T00:39:09.224Z,22.90
2019-04-16T00:41:38.708Z,23.33
2019-04-16T00:44:07.968Z,28.80
2019-04-16T00:46:37.347Z,26.83
2019-04-16T00:49:06.763Z,23.30
2019-04-16T00:51:36.023Z,27.83
2019-04-16T00:54:09.885Z,23.73
2019-04-16T00:56:36.218Z,25.27
2019-04-16T00:59:05.327Z,24.20
2019-04-16T01:01:34.643Z,25.50
2019-04-16T01:04:03.788Z,25.20
2019-04-16T01:06:33.967Z,23.90
2019-04-16T01:09:04.820Z,31.00
2019-04-16T01:11:34.638Z,25.80
2019-04-16T01:14:04.046Z,28.00
2019-04-16T01:16:33.615Z,23.90
2019-04-16T01:19:03.138Z,27.47
2019-04-16T01:21:32.640Z,28.03
2019-04-16T01:24:01.970Z,25.20
2019-04-16T01:26:31.269Z,26.30
2019-04-16T01:29:11.686Z,25.20
2019-04-16T01:32:11.402Z,29.00
2019-04-16T01:35:03.944Z,22.60
2019-04-16T01:38:01.176Z,28.70
2019-04-16T01:40:39.505Z,27.17
2019-04-16T01:43:09.058Z,26.60
2019-04-16T01:45:38.370Z,25.43
2019-04-16T01:48:08.308Z,24.93
2019-04-16T01:50:37.826Z,29.10
2019-04-16T01:53:07.588Z,22.67
2019-04-16T01:55:38.002Z,25.03
2019-04-16T01:58:07.471Z,27.07
2019-04-16T02:00:39.244Z,24.40
2019-04-16T02:03:07.902Z,19.33
2019-04-16T02:05:37.323Z,27.30
2019-04-16T02:08:06.647Z,31.10
2019-04-16T02:10:38.460Z,26.60
2019-04-16T02:13:07.744Z,24.60
2019-04-16T02:15:37.331Z,27.40
2019-04-16T02:18:07.166Z,23.50
2019-04-16T02:20:39.288Z,24.93
2019-04-16T02:23:07.589Z,23.07
2019-04-16T02:25:36.675Z,24.27
2019-04-16T02:28:06.328Z,25.77
2019-04-16T02:30:39.109Z,38.70
2019-04-16T02:33:06.731Z,27.50
2019-04-16T02:35:35.970Z,40.17
2019-04-16T02:38:11.034Z,26.50
2019-04-16T02:40:36.757Z,28.40
2019-04-16T02:43:07.392Z,26.10
2019-04-16T02:45:37.242Z,28.33
2019-04-16T02:48:06.567Z,106.73
2019-04-16T02:50:44.277Z,30.63
2019-04-16T02:53:31.160Z,28.73
2019-04-16T02:56:19.597Z,34.30
2019-04-16T02:59:11.776Z,27.77
2019-04-16T03:01:52.646Z,27.93
2019-04-16T03:04:26.985Z,24.73
2019-04-16T03:06:55.440Z,29.50
2019-04-16T03:09:24.728Z,37.37
2019-04-16T03:11:54.161Z,27.93
2019-04-16T03:14:23.764Z,25.20
2019-04-16T03:17:11.794Z,28.70
2019-04-16T03:19:42.402Z,25.43
2019-04-16T03:22:11.537Z,25.87
2019-04-16T03:24:41.070Z,42.30
2019-04-16T03:27:10.737Z,27.10
2019-04-16T03:29:40.084Z,36.73
2019-04-16T03:32:13.530Z,32.87
2019-04-16T03:34:40.231Z,29.37
2019-04-16T03:37:09.273Z,34.87
2019-04-16T03:39:43.814Z,50.30
2019-04-16T03:42:12.252Z,34.83
2019-04-16T03:44:41.902Z,31.03
2019-04-16T03:47:10.982Z,49.43
2019-04-16T03:49:40.118Z,48.30
2019-04-16T03:52:09.788Z,29.03
2019-04-16T03:54:39.165Z,49.03
2019-04-16T03:57:08.843Z,30.27
2019-04-16T03:59:40.052Z,27.30
2019-04-16T04:02:09.248Z,47.97
2019-04-16T04:04:38.302Z,34.30
2019-04-16T04:07:08.749Z,29.43
2019-04-16T04:09:40.202Z,37.67
2019-04-16T04:12:09.630Z,31.87
2019-04-16T04:14:39.891Z,36.60
2019-04-16T04:17:09.907Z,42.13
2019-04-16T04:19:38.865Z,48.50
2019-04-16T04:22:08.533Z,33.60
2019-04-16T04:24:37.513Z,43.43
2019-04-16T04:27:06.640Z,40.53
2019-04-16T04:29:35.587Z,34.00
2019-04-16T04:32:04.941Z,44.40
2019-04-16T04:34:33.994Z,38.97
2019-04-16T04:37:03.042Z,39.93
2019-04-16T04:39:32.338Z,32.77
2019-04-16T04:42:01.714Z,35.30
2019-04-16T04:44:33.453Z,37.70
2019-04-16T04:47:01.455Z,37.90
2019-04-16T04:49:31.523Z,31.57
2019-04-16T04:52:00.566Z,38.77
2019-04-16T04:54:29.896Z,28.40
2019-04-16T04:57:00.257Z,36.83
2019-04-16T04:59:29.321Z,37.10
2019-04-16T05:01:58.715Z,33.53
2019-04-16T05:04:40.449Z,35.47
2019-04-16T05:07:09.572Z,35.03
2019-04-16T05:09:38.942Z,31.67
2019-04-16T05:12:08.633Z,33.87
2019-04-16T05:14:41.159Z,38.37
2019-04-16T05:17:10.611Z,37.47
2019-04-16T05:19:39.997Z,38.87
2019-04-16T05:22:09.057Z,32.50
2019-04-16T05:24:38.531Z,35.50
2019-04-16T05:27:08.558Z,30.37
2019-04-16T05:29:38.770Z,31.63
2019-04-16T05:32:08.295Z,31.93
2019-04-16T05:34:38.554Z,46.57
2019-04-16T05:37:10.362Z,34.00
2019-04-16T05:39:40.137Z,32.33
2019-04-16T05:42:09.521Z,34.57
2019-04-16T05:44:39.166Z,31.63
2019-04-16T05:47:08.506Z,40.43
2019-04-16T05:49:38.351Z,29.70
2019-04-16T05:52:08.002Z,35.03
2019-04-16T05:55:01.660Z,35.20
2019-04-16T05:57:33.675Z,41.77
2019-04-16T06:00:09.314Z,47.37
2019-04-16T06:02:40.971Z,50.60
2019-04-16T06:05:10.545Z,53.93
2019-04-16T06:07:39.897Z,36.97
2019-04-16T06:10:10.168Z,37.93
2019-04-16T06:13:12.638Z,77.13
2019-04-16T06:15:50.249Z,37.23
2019-04-16T06:18:38.224Z,30.83
2019-04-16T06:21:26.629Z,34.53
2019-04-16T06:24:08.127Z,39.77
2019-04-16T06:26:44.508Z,36.93
2019-04-16T06:29:29.007Z,56.70
2019-04-16T06:32:19.411Z,32.63
2019-04-16T06:35:22.684Z,34.27
2019-04-16T06:37:59.647Z,38.13
2019-04-16T06:40:46.125Z,35.60
2019-04-16T06:43:25.262Z,40.30
2019-04-16T06:46:33.402Z,43.53
2019-04-16T06:49:28.138Z,42.63
2019-04-16T06:52:19.483Z,43.23
2019-04-16T06:55:23.030Z,35.43
2019-04-16T06:58:29.671Z,29.83
2019-04-16T07:01:14.048Z,34.40
2019-04-16T07:03:48.051Z,36.80
2019-04-16T07:06:39.176Z,38.33
2019-04-16T07:09:40.864Z,51.17
2019-04-16T07:12:27.291Z,30.20
2019-04-16T07:14:56.378Z,40.50
2019-04-16T07:17:32.855Z,28.50
2019-04-16T07:19:58.185Z,36.30
2019-04-16T07:22:28.931Z,37.93
2019-04-16T07:25:03.836Z,41.13
2019-04-16T07:27:46.136Z,35.87
2019-04-16T07:30:40.252Z,44.13
2019-04-16T07:33:20.517Z,31.00
2019-04-16T07:36:27.117Z,31.50
2019-04-16T07:39:18.004Z,33.07
2019-04-16T07:42:10.297Z,36.30
2019-04-16T07:45:02.291Z,36.93
2019-04-16T07:47:52.770Z,35.33
2019-04-16T07:50:40.187Z,28.07
2019-04-16T07:53:47.126Z,38.60
2019-04-16T07:56:18.098Z,37.50
2019-04-16T07:58:47.279Z,37.47
2019-04-16T08:01:17.655Z,38.73
2019-04-16T08:03:47.300Z,33.73
2019-04-16T08:06:16.430Z,33.20
2019-04-16T08:08:45.703Z,34.93
2019-04-16T08:11:15.197Z,35.87
2019-04-16T08:13:46.043Z,35.60
2019-04-16T08:16:15.635Z,38.73
2019-04-16T08:18:49.087Z,35.23
2019-04-16T08:21:22.280Z,32.80
2019-04-16T08:23:55.675Z,34.30
2019-04-16T08:26:33.911Z,33.60
2019-04-16T08:29:03.897Z,38.23
2019-04-16T08:31:35.809Z,34.53
2019-04-16T08:34:05.045Z,41.73
2019-04-16T08:36:35.363Z,35.40
2019-04-16T08:39:08.156Z,35.03
2019-04-16T08:41:37.652Z,28.80
2019-04-16T08:44:09.639Z,34.90
2019-04-16T08:46:40.078Z,30.57
2019-04-16T08:49:09.865Z,35.57
2019-04-16T08:51:40.015Z,35.40
2019-04-16T08:54:10.297Z,38.47
2019-04-16T08:56:40.103Z,30.23
2019-04-16T08:59:11.085Z,26.93
2019-04-16T09:01:41.325Z,40.43
2019-04-16T09:04:11.060Z,30.03
2019-04-16T09:06:42.629Z,35.63
2019-04-16T09:09:30.538Z,23.73
2019-04-16T09:12:07.956Z,30.10
2019-04-16T09:14:37.259Z,27.90
2019-04-16T09:17:40.479Z,29.27
2019-04-16T09:20:11.797Z,30.27
2019-04-16T09:22:48.860Z,36.23
2019-04-16T09:25:33.778Z,29.20
2019-04-16T09:28:24.042Z,30.33
2019-04-16T09:31:02.827Z,31.13
2019-04-16T09:33:52.043Z,36.07
2019-04-16T09:36:39.008Z,30.33
2019-04-16T09:39:26.502Z,30.97
2019-04-16T09:41:55.827Z,34.60
2019-04-16T09:44:29.721Z,26.93
2019-04-16T09:47:01.524Z,29.50
2019-04-16T09:49:34.357Z,23.07
2019-04-16T09:52:03.987Z,28.60
2019-04-16T09:54:33.914Z,23.73
2019-04-16T09:57:05.832Z,32.47
2019-04-16T09:59:39.684Z,18.70
2019-04-16T10:02:15.633Z,21.23
2019-04-16T10:04:46.357Z,17.03
2019-04-16T10:07:17.247Z,15.50
2019-04-16T10:09:47.170Z,20.43
2019-04-16T10:12:16.438Z,14.50
2019-04-16T10:14:46.622Z,14.53
2019-04-16T10:17:15.547Z,15.50
2019-04-16T10:19:45.019Z,17.33
2019-04-16T10:22:15.161Z,14.00
2019-04-16T10:25:18.201Z,13.63
2019-04-16T10:28:01.969Z,22.60
2019-04-16T10:30:44.357Z,26.57
2019-04-16T10:33:13.488Z,16.57
2019-04-16T10:35:42.970Z,19.67
2019-04-16T10:38:40.241Z,15.93
2019-04-16T10:41:16.061Z,16.73
2019-04-16T10:44:03.945Z,19.70
2019-04-16T10:46:39.304Z,21.30
2019-04-16T10:49:33.435Z,14.97
2019-04-16T10:52:22.196Z,19.93
2019-04-16T10:54:58.081Z,15.93
2019-04-16T10:57:39.956Z,15.93
2019-04-16T11:00:31.376Z,16.63
2019-04-16T11:03:22.252Z,15.33
2019-04-16T11:05:58.100Z,18.00
2019-04-16T11:08:27.616Z,20.60
2019-04-16T11:10:56.681Z,15.83
2019-04-16T11:13:35.002Z,18.07
2019-04-16T11:16:10.062Z,15.83
2019-04-16T11:18:39.672Z,17.93
2019-04-16T11:21:09.328Z,17.40
2019-04-16T11:23:38.498Z,15.33
2019-04-16T11:26:08.633Z,15.87
2019-04-16T11:28:37.724Z,15.73
2019-04-16T11:31:10.945Z,17.70
2019-04-16T11:33:40.248Z,14.10
2019-04-16T11:36:18.697Z,15.47
2019-04-16T11:38:41.070Z,17.40
2019-04-16T11:41:11.304Z,16.10
2019-04-16T11:43:41.179Z,17.43
2019-04-16T11:46:10.974Z,15.90
2019-04-16T11:48:40.540Z,17.10
2019-04-16T11:51:09.734Z,15.50
2019-04-16T11:53:39.370Z,11.13
2019-04-16T11:56:08.375Z,13.87
2019-04-16T11:58:40.805Z,12.93
2019-04-16T12:01:38.031Z,16.30
2019-04-16T12:04:35.102Z,19.07
2019-04-16T12:07:13.310Z,16.43
2019-04-16T12:10:14.666Z,23.03
2019-04-16T12:13:09.107Z,13.60
2019-04-16T12:15:57.196Z,14.53
2019-04-16T12:18:54.639Z,15.20
2019-04-16T12:21:41.341Z,19.30
2019-04-16T12:24:23.082Z,15.93
2019-04-16T12:27:15.088Z,20.40
2019-04-16T12:30:09.271Z,24.73
2019-04-16T12:33:08.772Z,15.33
2019-04-16T12:35:53.372Z,20.33
2019-04-16T12:38:26.557Z,34.77
2019-04-16T12:41:13.404Z,17.93
2019-04-16T12:43:50.756Z,18.00
2019-04-16T12:46:28.193Z,23.67
2019-04-16T12:49:28.884Z,14.77
2019-04-16T12:52:17.539Z,20.03
2019-04-16T12:55:04.005Z,19.20
2019-04-16T12:57:50.342Z,14.43
2019-04-16T13:00:32.338Z,16.17
2019-04-16T13:03:19.068Z,23.60
2019-04-16T13:06:05.837Z,17.23
2019-04-16T13:08:41.309Z,17.83
2019-04-16T13:11:36.224Z,18.43
2019-04-16T13:14:27.311Z,17.83
2019-04-16T13:17:10.683Z,15.43
2019-04-16T13:20:01.760Z,15.60
2019-04-16T13:22:36.495Z,18.20
2019-04-16T13:25:31.070Z,15.63
2019-04-16T13:28:00.516Z,15.23
2019-04-16T13:30:30.111Z,20.03
2019-04-16T13:33:00.020Z,14.77
2019-04-16T13:35:30.140Z,16.47
2019-04-16T13:37:59.464Z,16.10
2019-04-16T13:40:29.640Z,18.43
2019-04-16T13:43:01.677Z,39.13
2019-04-16T13:45:32.570Z,38.47
2019-04-16T13:48:15.734Z,20.53
2019-04-16T13:50:52.183Z,25.63
2019-04-16T13:53:36.195Z,22.33
2019-04-16T13:56:17.358Z,23.73
2019-04-16T13:58:59.014Z,19.87
2019-04-16T14:01:31.262Z,24.33
2019-04-16T14:04:02.416Z,21.17
2019-04-16T14:06:31.828Z,28.27
2019-04-16T14:09:01.852Z,18.20
2019-04-16T14:11:31.526Z,22.80
2019-04-16T14:14:00.926Z,17.30
2019-04-16T14:16:30.315Z,24.87
2019-04-16T14:19:02.500Z,21.33
2019-04-16T14:21:30.748Z,18.17
2019-04-16T14:24:00.577Z,22.57
2019-04-16T14:26:30.388Z,24.70
2019-04-16T14:29:05.406Z,21.70
2019-04-16T14:31:30.699Z,21.03
2019-04-16T14:34:22.090Z,22.43
2019-04-16T14:36:53.112Z,23.83
2019-04-16T14:39:31.110Z,22.90
2019-04-16T14:42:00.566Z,18.93
2019-04-16T14:44:34.610Z,19.07
2019-04-16T14:47:05.281Z,22.07
2019-04-16T14:49:34.544Z,25.80
2019-04-16T14:52:03.771Z,23.67
2019-04-16T14:54:42.058Z,16.00
2019-04-16T14:57:11.564Z,21.70
2019-04-16T14:59:59.719Z,19.43
2019-04-16T15:02:50.926Z,20.90
2019-04-16T15:05:54.305Z,21.80
2019-04-16T15:08:43.285Z,23.80
2019-04-16T15:11:34.486Z,18.17
2019-04-16T15:14:16.667Z,21.03
2019-04-16T15:17:06.960Z,17.83
2019-04-16T15:19:42.187Z,21.60
2019-04-16T15:22:31.151Z,18.80
2019-04-16T15:25:25.203Z,20.60
2019-04-16T15:28:19.467Z,19.90
2019-04-16T15:31:00.699Z,17.63
2019-04-16T15:33:38.989Z,18.33
2019-04-16T15:36:29.410Z,19.03
2019-04-16T15:39:11.370Z,18.30
2019-04-16T15:41:58.545Z,20.57
2019-04-16T15:44:46.687Z,17.47
2019-04-16T15:47:42.941Z,16.67
2019-04-16T15:50:14.754Z,23.13
2019-04-16T15:53:02.897Z,24.47
2019-04-16T15:55:57.587Z,18.47
2019-04-16T15:58:48.901Z,29.13
2019-04-16T16:01:32.540Z,21.73
2019-04-16T16:04:29.739Z,17.70
2019-04-16T16:07:08.205Z,23.60
2019-04-16T16:09:57.522Z,15.43
2019-04-16T16:12:27.125Z,30.43
2019-04-16T18:24:17.144Z,19.00
2019-04-16T18:27:11.779Z,15.13
2019-04-16T18:30:07.540Z,13.50
2019-04-16T18:33:06.954Z,15.30
2019-04-16T18:35:43.768Z,15.00
2019-04-16T18:38:36.154Z,22.27
2019-04-16T18:47:04.057Z,13.00
2019-04-16T18:49:30.827Z,17.50
2019-04-16T18:52:00.567Z,17.40
2019-04-16T18:54:30.039Z,23.37
2019-04-16T18:57:00.129Z,13.60
2019-04-16T18:59:30.017Z,12.97
2019-04-16T19:02:08.426Z,18.07
2019-04-16T19:04:37.249Z,17.83
2019-04-16T19:07:07.225Z,13.60
2019-04-16T19:09:37.082Z,10.77
2019-04-16T19:12:21.819Z,16.60
2019-04-16T19:14:55.231Z,11.60
2019-04-16T19:17:43.817Z,14.43
2019-04-16T19:46:34.612Z,17.73
2019-04-16T19:49:07.100Z,21.27
2019-04-16T19:51:41.298Z,13.80
2019-04-16T19:54:10.036Z,20.53
2019-04-16T19:56:39.712Z,24.97
2019-04-16T19:59:11.479Z,22.97
2019-04-16T20:01:44.797Z,17.80
2019-04-16T20:04:16.888Z,29.10
2019-04-16T20:06:52.681Z,16.63
2019-04-16T20:09:27.351Z,20.80
2019-04-16T20:12:02.305Z,24.20
2019-04-16T20:14:38.277Z,24.53
2019-04-16T20:17:07.714Z,17.50
2019-04-16T20:19:56.520Z,19.10
2019-04-16T20:22:31.231Z,14.77
2019-04-16T20:25:00.275Z,18.70
2019-04-16T20:27:31.678Z,18.57
2019-04-16T20:30:01.766Z,17.43
2019-04-16T20:32:34.294Z,18.07
2019-04-16T20:35:03.838Z,17.90
2019-04-16T20:37:34.129Z,14.03
2019-04-16T20:40:03.282Z,14.70
2019-04-16T20:42:32.790Z,16.60
2019-04-16T20:45:03.420Z,16.50
2019-04-16T20:47:38.765Z,15.30
2019-04-16T20:50:05.047Z,14.40
2019-04-16T20:52:35.197Z,20.07
2019-04-16T20:55:05.107Z,16.93
2019-04-16T20:57:34.968Z,16.07
2019-04-16T21:00:10.264Z,18.60
2019-04-16T21:02:36.796Z,17.60
2019-04-16T21:05:21.625Z,17.53
2019-04-16T21:07:39.040Z,14.87
2019-04-16T21:10:08.703Z,20.73
2019-04-16T21:12:38.830Z,17.80
2019-04-16T21:15:08.984Z,20.17
2019-04-16T21:17:39.309Z,22.67
2019-04-16T21:20:09.218Z,23.80
2019-04-16T21:22:39.181Z,18.87
2019-04-16T21:25:12.943Z,24.03
2019-04-16T21:27:54.459Z,23.70
2019-04-16T21:30:26.946Z,19.67
2019-04-16T21:33:03.241Z,28.47
2019-04-16T21:35:37.034Z,22.20
2019-04-16T21:41:10.235Z,20.47
2019-04-16T21:43:39.547Z,21.47
2019-04-16T21:46:09.307Z,26.50
2019-04-16T21:48:38.273Z,27.63
2019-04-16T21:51:08.108Z,16.77
2019-04-16T21:53:37.749Z,18.03
2019-04-16T21:56:12.081Z,22.17
2019-04-16T21:58:41.058Z,20.43
2019-04-16T22:01:35.983Z,22.73
2019-04-16T22:04:14.716Z,21.20
2019-04-16T22:06:44.015Z,22.00
2019-04-16T22:09:14.075Z,22.60
2019-04-16T22:11:44.376Z,28.30
2019-04-16T22:14:13.774Z,21.60
2019-04-16T22:16:43.539Z,15.73
2019-04-16T22:19:14.064Z,24.83
2019-04-16T22:21:44.049Z,20.53
2019-04-16T22:24:12.997Z,15.73
2019-04-16T22:26:42.270Z,18.30
2019-04-16T22:29:15.384Z,21.80
2019-04-16T22:31:42.615Z,24.87
2019-04-16T22:34:12.034Z,18.17
2019-04-16T22:36:41.990Z,20.93
2019-04-16T22:39:25.332Z,23.53
2019-04-16T22:42:09.328Z,21.30
2019-04-16T22:45:06.541Z,25.40
2019-04-16T22:47:35.686Z,20.80
2019-04-16T22:50:15.058Z,24.43
2019-04-16T22:52:35.689Z,27.00
2019-04-16T22:55:04.785Z,24.13
2019-04-16T22:57:35.272Z,25.60
2019-04-16T23:00:11.430Z,34.37
2019-04-16T23:02:37.524Z,81.37
2019-04-16T23:05:06.483Z,51.30
2019-04-16T23:07:36.546Z,29.27
2019-04-16T23:10:06.059Z,24.40
2019-04-16T23:12:35.923Z,19.30
2019-04-16T23:15:06.197Z,24.23
2019-04-16T23:17:35.161Z,25.13
2019-04-16T23:20:04.470Z,21.63
2019-04-16T23:22:34.054Z,19.67
2019-04-16T23:25:03.014Z,19.17
2019-04-16T23:27:37.187Z,20.57
2019-04-16T23:30:02.741Z,20.33
2019-04-16T23:32:32.139Z,26.00
2019-04-16T23:35:01.945Z,20.57
2019-04-16T23:37:31.181Z,25.10
2019-04-16T23:40:00.390Z,20.87
2019-04-16T23:42:30.347Z,20.40
2019-04-16T23:45:10.348Z,23.70
2019-04-16T23:48:04.615Z,24.80
2019-04-16T23:51:10.858Z,17.63
2019-04-16T23:53:52.415Z,24.23
2019-04-16T23:56:34.999Z,24.80
2019-04-16T23:59:08.663Z,27.60
